Barberton, Ohio
Current Conditions -  °F | °C
As of 2:54 PM on Saturday 25 Oct 2014 (Local Time) from KAKR Reporting Station
Few Clouds Few Clouds  
Wind Chill: 70°   Ceiling: Unl
Heat Index: 70°   Visibility: 10mi
Dew Point: 52°   Wind: 21mph
Humidity: 53%   Direction: 270°W
Pressure: 29.78"   Gusts: 28mph
Location:  41.01°N, 81.61°W
Report Text: KAKR 251854Z AUTO 27018G24KT 10SM FEW036 21/11 A2978 RMK AO2 PK WND 23029/1817 SLP082 T02110111
Loading
Personal Weather Stations






























Interactive Weather Map
Tropical Storm Tracking
New forecast layout! Learn more

10-Day Weather Forecast

Advertisements
Track Severe Weather on mobile